Latest Weather Observations for Melbourne (Olympic Park)

IDV60901

Issued at 8:31 am EDT Tuesday 27 October 2020 (issued every 10 minutes, with the page automatically refreshed every 10 minutes)

About weather observations | Map of Melbourne area stations | Latest observations for Melbourne area | Other Formats
Station Details ID: 086338 Name: MELBOURNE (OLYMPIC PARK) Lat: -37.83 Lon: 144.98 Height: 7.53 m
Data from the previous 72 hours. | See also: Recent months at Melbourne (Olympic Park)
Date/Time
EDT
Temp
°C
App
Temp
°C
Dew
Point
°C
Rel
Hum
%
Delta-T
°C
Wind Press
QNH
hPa
Press
MSL
hPa
Rain since
9am
mm
Dir  Spd
km/h
Gust
km/h
Spd
kts
Gust
kts
27/08:30am 13.1 10.3 8.4 73 2.3 SE 13 24 7 13 1023.5 1023.5 0.0
27/08:00am 12.4 9.3 8.7 78 1.8 SE 15 22 8 12 1023.5 1023.5 0.0
27/07:30am 11.8 8.6 8.6 81 1.6 SE 15 30 8 16 1023.4 1023.4 0.0
27/07:00am 11.4 8.2 8.6 83 1.4 SE 15 22 8 12 1023.2 1023.2 0.0
27/06:30am 11.2 8.4 8.4 83 1.4 SE 13 22 7 12 1023.2 1023.2 0.0
27/06:00am 11.3 8.3 7.8 79 1.7 SE 13 20 7 11 1022.9 1022.9 0.0
27/05:30am 11.3 9.1 7.8 79 1.7 SE 9 17 5 9 1022.9 1022.9 0.0
27/05:00am 11.4 8.8 7.9 79 1.7 SE 11 20 6 11 1023.0 1023.0 0.0
27/04:30am 11.4 9.4 7.3 76 2.0 SE 7 11 4 6 1023.1 1023.1 0.0
27/04:00am 11.3 9.4 7.4 77 1.9 SE 7 19 4 10 1023.2 1023.2 0.0
27/03:30am 11.3 8.9 7.2 76 2.0 SE 9 19 5 10 1023.2 1023.2 0.0
27/03:00am 11.5 8.6 6.6 72 2.3 SE 11 20 6 11 1023.1 1023.1 0.0
27/02:30am 11.7 9.2 6.6 71 2.4 SE 9 19 5 10 1023.2 1023.2 0.0
27/02:00am 12.0 9.1 6.5 69 2.6 ESE 11 20 6 11 1023.3 1023.3 0.0
27/01:30am 12.1 8.8 6.2 67 2.8 ESE 13 26 7 14 1023.6 1023.6 0.0
27/01:00am 12.1 8.8 6.2 67 2.8 ESE 13 28 7 15 1023.8 1023.8 0.0
27/12:30am 12.1 9.1 6.2 67 2.8 ESE 11 30 6 16 1023.9 1023.9 0.0
27/12:00am 12.3 8.2 6.1 66 2.9 ESE 17 30 9 16 1024.1 1024.1 0.0
 
Date/Time
EDT
Temp
°C
App
Temp
°C
Dew
Point
°C
Rel
Hum
%
Delta-T
°C
Wind Press
QNH
hPa
Press
MSL
hPa
Rain since
9am
mm
Dir  Spd
km/h
Gust
km/h
Spd
kts
Gust
kts
26/11:30pm 12.3 8.7 6.6 68 2.7 ESE 15 35 8 19 1024.3 1024.3 0.0
26/11:00pm 12.4 9.2 6.7 68 2.7 ESE 13 22 7 12 1024.4 1024.4 0.0
26/10:30pm 12.6 8.1 6.0 64 3.1 ESE 19 35 10 19 1024.4 1024.4 0.0
26/10:00pm 12.9 8.6 5.3 60 3.5 ESE 17 33 9 18 1024.4 1024.4 0.0
26/09:30pm 13.1 9.2 5.3 59 3.6 ESE 15 32 8 17 1024.1 1024.1 0.0
26/09:00pm 13.4 8.7 5.1 57 3.8 ESE 19 41 10 22 1023.8 1023.8 0.0
26/08:30pm 13.6 8.8 4.5 54 4.2 ESE 19 33 10 18 1023.4 1023.4 0.0
26/08:00pm 13.7 9.1 5.6 58 3.8 SE 19 37 10 20 1023.2 1023.2 0.0
26/07:30pm 14.4 9.7 5.0 53 4.4 ESE 19 39 10 21 1022.8 1022.8 0.0
26/07:00pm 14.8 10.5 5.1 52 4.5 SE 17 33 9 18 1022.4 1022.4 0.0
26/06:30pm 15.3 10.3 4.4 48 5.1 SE 20 41 11 22 1022.2 1022.2 0.0
26/06:00pm 16.5 11.2 5.2 47 5.4 ESE 22 41 12 22 1022.0 1022.0 0.0
26/05:30pm 17.4 13.1 5.4 45 5.8 ESE 17 35 9 19 1021.8 1021.8 0.0
26/05:00pm 17.4 12.1 5.0 44 5.9 SE 22 44 12 24 1021.5 1021.5 0.0
26/04:30pm 17.3 11.6 4.9 44 5.9 SE 24 43 13 23 1021.5 1021.5 0.0
26/04:00pm 17.1 11.1 5.1 45 5.7 SE 26 46 14 25 1021.4 1021.4 0.0
26/03:35pm 16.8 10.3 4.8 45 5.7 SE 28 48 15 26 1021.5 1021.5 0.0
26/03:30pm 17.5 11.9 5.4 45 5.8 SE 24 48 13 26 1021.5 1021.5 0.0
26/03:00pm 16.8 10.3 4.5 44 5.8 SE 28 46 15 25 1021.9 1021.9 0.0
26/02:40pm 16.9 10.5 5.2 46 5.6 SE 28 50 15 27 1022.0 1022.0 0.0
26/02:30pm 17.2 11.9 5.2 45 5.8 ESE 22 44 12 24 1022.1 1022.1 0.0
26/02:00pm 17.1 11.8 5.1 45 5.7 ESE 22 41 12 22 1022.3 1022.3 0.0
26/01:30pm 17.0 12.2 5.6 47 5.5 SE 20 39 11 21 1022.4 1022.4 0.0
26/01:01pm 16.2 9.7 4.9 47 5.3 SE 28 48 15 26 1022.7 1022.7 0.0
26/01:00pm 16.2 10.1 4.9 47 5.3 SE 26 48 14 26 1022.7 1022.7 0.0
26/12:53pm 15.9 9.4 4.9 48 5.2 SE 28 48 15 26 1022.9 1022.9 0.0
26/12:30pm 15.9 10.1 4.3 46 5.4 SE 24 50 13 27 1023.3 1023.3 0.0
26/12:00pm 15.6 9.8 4.3 47 5.2 SE 24 43 13 23 1023.5 1023.5 0.0
26/11:30am 15.4 10.4 4.5 48 5.1 SE 20 41 11 22 1023.7 1023.7 0.0
26/11:00am 15.4 10.5 5.0 50 4.9 SE 20 41 11 22 1024.0 1024.0 0.0
26/10:30am 14.4 9.0 4.7 52 4.5 SE 22 41 12 22 1024.1 1024.1 0.0
26/10:00am 13.9 8.9 4.5 53 4.3 ESE 20 41 11 22 1024.1 1024.1 0.0
26/09:30am 13.5 9.1 4.9 56 4.0 SE 17 35 9 19 1024.3 1024.3 0.0
26/09:00am 12.5 8.1 5.0 60 3.4 SE 17 39 9 21 1024.2 1024.2 0.0
26/08:30am 11.6 7.7 5.5 66 2.8 SE 15 30 8 16 1024.3 1024.3 0.0
26/08:00am 10.8 6.2 5.8 71 2.3 SE 19 39 10 21 1024.1 1024.1 0.0
26/07:30am 9.9 6.1 5.9 76 1.8 SSE 15 22 8 12 1024.1 1024.1 0.0
26/07:00am 9.4 5.6 5.9 79 1.6 SSE 15 26 8 14 1023.7 1023.7 0.0
26/06:30am 9.3 5.9 6.0 80 1.5 SSE 13 24 7 13 1023.6 1023.6 0.0
26/06:00am 9.3 5.5 6.0 80 1.5 SE 15 24 8 13 1023.3 1023.3 0.0
26/05:30am 9.4 6.0 5.9 79 1.6 SSE 13 30 7 16 1023.1 1023.1 0.0
26/05:00am 9.4 6.0 5.9 79 1.6 SE 13 24 7 13 1022.9 1022.9 0.0
26/04:30am 9.4 6.4 5.8 78 1.6 SE 11 26 6 14 1022.8 1022.8 0.0
26/04:00am 9.5 6.0 5.5 76 1.8 SE 13 26 7 14 1022.6 1022.6 0.0
26/03:30am 9.5 6.0 5.3 75 1.9 ESE 13 26 7 14 1022.8 1022.8 0.0
26/03:00am 9.8 6.0 5.6 75 1.9 SE 15 26 8 14 1022.9 1022.9 0.0
26/02:30am 10.2 7.1 5.6 73 2.1 SE 11 20 6 11 1023.1 1023.1 0.0
26/02:00am 10.1 7.0 5.7 74 2.0 SE 11 28 6 15 1023.2 1023.2 0.0
26/01:30am 10.4 7.3 5.4 71 2.3 SE 11 24 6 13 1023.3 1023.3 0.0
26/01:00am 10.7 6.5 5.5 70 2.4 SE 17 32 9 17 1023.6 1023.6 0.0
26/12:30am 10.8 6.2 5.8 71 2.3 SE 19 33 10 18 1023.8 1023.8 0.0
26/12:00am 10.8 6.1 5.3 69 2.5 SE 19 32 10 17 1023.8 1023.8 0.0
 
Date/Time
EDT
Temp
°C
App
Temp
°C
Dew
Point
°C
Rel
Hum
%
Delta-T
°C
Wind Press
QNH
hPa
Press
MSL
hPa
Rain since
9am
mm
Dir  Spd
km/h
Gust
km/h
Spd
kts
Gust
kts
25/11:30pm 10.8 7.0 5.6 70 2.4 SE 15 30 8 16 1023.9 1023.9 0.0
25/11:00pm 10.6 6.8 5.6 71 2.3 SE 15 28 8 15 1024.2 1024.2 0.0
25/10:30pm 10.8 7.6 5.1 68 2.6 SE 11 24 6 13 1024.4 1024.4 0.0
25/10:00pm 11.2 7.6 5.1 66 2.8 SE 13 35 7 19 1024.2 1024.2 0.0
25/09:30pm 11.4 7.7 4.6 63 3.1 SE 13 35 7 19 1024.1 1024.1 0.0
25/09:00pm 11.5 8.2 4.5 62 3.1 SE 11 24 6 13 1023.9 1023.9 0.0
25/08:30pm 11.7 7.7 4.7 62 3.2 SE 15 32 8 17 1023.7 1023.7 0.0
25/08:00pm 12.1 8.0 4.6 60 3.4 SE 15 26 8 14 1023.1 1023.1 0.0
25/07:30pm 12.5 8.4 4.5 58 3.6 SE 15 35 8 19 1022.6 1022.6 0.0
25/07:00pm 12.3 8.3 5.0 61 3.3 SE 15 26 8 14 1022.3 1022.3 0.0
25/06:30pm 12.3 7.7 5.5 63 3.2 SE 19 32 10 17 1022.0 1022.0 0.0
25/06:00pm 13.0 7.6 4.4 56 3.9 SE 22 44 12 24 1021.6 1021.6 0.0
25/05:30pm 13.4 8.2 3.8 52 4.3 SE 20 39 11 21 1021.3 1021.3 0.0
25/05:00pm 13.1 8.2 4.3 55 4.0 SSE 19 33 10 18 1021.3 1021.3 0.0
25/04:30pm 13.4 8.5 4.0 53 4.3 SE 19 32 10 17 1021.1 1021.1 0.0
25/04:00pm 12.7 7.9 5.8 63 3.2 SSE 20 37 11 20 1021.0 1021.0 0.0
25/03:30pm 12.4 7.4 6.5 67 2.8 SSE 22 39 12 21 1021.1 1021.1 0.0
25/03:00pm 12.9 9.2 6.3 64 3.1 SSE 15 30 8 16 1020.9 1020.9 0.0
25/02:30pm 12.9 8.8 6.0 63 3.3 SSE 17 33 9 18 1021.1 1021.1 0.0
25/02:00pm 12.4 7.9 6.2 66 2.9 SSE 19 32 10 17 1021.0 1021.0 0.0
25/01:30pm 13.3 8.6 5.0 57 3.8 SSE 19 43 10 23 1020.6 1020.6 0.0
25/01:00pm 14.0 9.1 4.0 51 4.5 SSE 19 32 10 17 1020.5 1020.5 0.0
25/12:30pm 13.0 8.3 3.4 52 4.3 S 17 28 9 15 1020.5 1020.5 0.0
25/12:00pm 13.5 8.5 1.2 43 5.2 SSE 17 35 9 19 1020.8 1020.8 0.0
25/11:30am 13.5 9.3 1.8 45 5.1 SSE 13 26 7 14 1021.0 1021.0 0.0
25/11:00am 12.2 7.2 1.2 47 4.6 S 17 30 9 16 1021.2 1021.2 0.0
25/10:30am 12.2 7.1 0.9 46 4.7 SSE 17 32 9 17 1021.1 1021.1 0.0
25/10:00am 11.8 6.7 0.9 47 4.5 SSE 17 30 9 16 1021.1 1021.1 0.0
25/09:30am 10.9 5.1 -0.2 46 4.5 SSE 20 39 11 21 1021.0 1021.0 0.0
25/09:00am 11.0 4.7 -0.8 44 4.7 SSE 22 46 12 25 1020.7 1020.7 6.4
25/08:30am 11.0 6.1 -0.5 45 4.6 SSE 15 37 8 20 1020.2 1020.2 6.4
25/08:00am 10.5 5.4 0.5 50 4.1 SSE 17 32 9 17 1019.9 1019.9 6.4
25/07:30am 9.9 5.4 2.3 59 3.2 SSE 15 28 8 15 1019.3 1019.3 6.4
25/07:00am 9.3 4.9 2.9 64 2.7 SSE 15 26 8 14 1018.7 1018.7 6.4
25/06:30am 8.4 3.2 3.5 71 2.1 SSE 20 37 11 20 1018.3 1018.3 6.4
25/06:16am 9.0 2.2 3.2 67 2.5 S 28 50 15 27 1018.2 1018.2 6.4
25/06:00am 9.3 5.3 4.7 73 2.0 SSE 15 35 8 19 1017.8 1017.8 6.4
25/05:30am 8.9 4.1 4.7 75 1.9 SSE 19 39 10 21 1017.3 1017.3 6.4
25/05:00am 9.8 5.8 4.8 71 2.2 S 15 28 8 15 1016.9 1016.9 6.4
25/04:30am 9.9 6.0 3.4 64 2.8 SSE 13 24 7 13 1016.4 1016.4 6.4
25/04:00am 10.1 5.8 3.4 63 2.9 SSE 15 28 8 15 1016.1 1016.1 6.4
25/03:30am 10.6 6.9 4.3 65 2.8 S 13 28 7 15 1015.8 1015.8 6.4
25/03:00am 10.7 5.8 4.2 64 2.9 S 19 37 10 20 1015.4 1015.4 6.4
25/02:30am 10.6 6.4 5.8 72 2.2 SSE 17 37 9 20 1015.3 1015.3 6.4
25/02:00am 10.8 6.5 5.1 68 2.6 S 17 35 9 19 1015.3 1015.3 6.4
25/01:30am 10.0 6.4 6.9 81 1.5 SSE 15 32 8 17 1015.1 1015.1 6.4
25/01:00am 10.7 6.8 7.2 79 1.7 S 17 30 9 16 1015.0 1015.0 6.2
25/12:30am 10.0 6.8 8.4 90 0.8 S 15 28 8 15 1014.7 1014.7 6.2
25/12:00am 10.1 7.3 8.5 90 0.8 S 13 24 7 13 1014.5 1014.5 6.0
 
Date/Time
EDT
Temp
°C
App
Temp
°C
Dew
Point
°C
Rel
Hum
%
Delta-T
°C
Wind Press
QNH
hPa
Press
MSL
hPa
Rain since
9am
mm
Dir  Spd
km/h
Gust
km/h
Spd
kts
Gust
kts
24/11:59pm 10.2 7.5 8.8 91 0.7 S 13 22 7 12 1014.5 1014.5 5.8
24/11:40pm 9.8 5.8 8.4 91 0.7 SSW 19 35 10 19 1014.5 1014.5 5.4
24/11:30pm 10.5 8.4 8.4 87 1.0 SSW 9 22 5 12 1014.3 1014.3 4.8
24/11:00pm 10.1 7.2 8.2 88 0.9 SSW 13 28 7 15 1014.3 1014.3 4.8
24/10:30pm 11.2 7.3 7.3 77 1.9 SSW 17 37 9 20 1014.2 1014.2 4.2
24/10:00pm 11.4 7.7 4.6 63 3.1 SSW 13 28 7 15 1014.2 1014.2 4.2
24/09:30pm 12.3 7.4 4.3 58 3.6 S 19 32 10 17 1014.0 1014.0 4.2
24/09:00pm 11.9 8.5 6.0 67 2.8 S 13 20 7 11 1013.6 1013.6 4.2
24/08:30pm 11.6 7.8 5.9 68 2.7 S 15 28 8 15 1013.4 1013.4 4.2
24/08:00pm 12.0 7.9 4.5 60 3.4 SSW 15 30 8 16 1012.8 1012.8 4.2
24/07:30pm 11.9 7.4 4.4 60 3.4 SSW 17 32 9 17 1012.4 1012.4 4.2
24/07:00pm 12.4 7.3 3.9 56 3.8 S 20 37 11 20 1011.9 1011.9 4.2
24/06:30pm 12.7 7.5 3.4 53 4.1 S 20 43 11 23 1011.6 1011.6 4.2
24/06:00pm 12.9 7.8 4.3 56 3.9 S 20 39 11 21 1011.2 1011.2 4.2
24/05:30pm 13.0 8.1 5.2 59 3.6 S 20 52 11 28 1010.7 1010.7 4.2
24/05:00pm 13.1 8.9 7.3 68 2.8 S 19 32 10 17 1010.3 1010.3 4.2
24/04:30pm 12.8 8.7 8.7 76 2.0 S 20 43 11 23 1010.0 1010.0 4.2
24/04:00pm 13.5 10.1 9.2 75 2.2 SSE 17 30 9 16 1009.7 1009.7 4.2
24/03:30pm 13.8 10.5 9.5 75 2.2 S 17 37 9 20 1009.5 1009.5 4.2
24/03:00pm 14.7 11.4 9.5 71 2.7 S 17 32 9 17 1009.3 1009.3 4.2
24/02:30pm 14.3 10.5 9.7 74 2.4 S 20 33 11 18 1009.3 1009.3 4.2
24/02:00pm 14.0 10.9 10.2 78 2.0 S 17 32 9 17 1009.0 1009.0 4.2
24/01:30pm 14.2 10.9 9.6 74 2.4 SSW 17 30 9 16 1008.7 1008.7 4.2
24/01:00pm 13.9 10.9 9.3 74 2.3 S 15 30 8 16 1008.6 1008.6 4.2
24/12:30pm 13.0 11.0 10.0 82 1.5 S 11 20 6 11 1008.6 1008.6 4.2
24/12:00pm 11.8 10.3 10.7 93 0.6 SSE 9 17 5 9 1008.5 1008.5 4.2
24/11:30am 11.3 9.5 10.7 96 0.3 S 11 22 6 12 1008.4 1008.4 4.2
24/11:00am 11.5 9.5 11.5 100 0.0 S 13 26 7 14 1008.2 1008.2 3.6
24/10:30am 11.6 9.3 11.6 100 0.0 SSW 15 28 8 15 1008.0 1008.0 3.4
24/10:03am 11.7 9.4 11.7 100 0.0 S 15 24 8 13 1007.8 1007.8 2.6
24/10:00am 11.6 9.3 11.6 100 0.0 SSW 15 30 8 16 1007.8 1007.8 2.4
24/09:32am 11.9 10.8 11.9 100 0.0 S 9 15 5 8 1007.5 1007.5 1.2
24/09:30am 11.9 10.8 11.9 100 0.0 S 9 15 5 8 1007.4 1007.4 1.0
24/09:24am 11.9 10.8 11.9 100 0.0 S 9 20 5 11 1007.4 1007.4 0.6
24/09:00am 11.9 10.4 11.9 100 0.0 S 11 19 6 10 1007.2 1007.2 32.2
24/08:54am 11.8 9.9 11.8 100 0.0 SSW 13 26 7 14 1007.1 1007.1 32.0

Latest Capital City Observations: Canberra | Sydney | Melbourne | Brisbane | Adelaide | Perth | Hobart | Darwin

Other formats

Comma delimited format used in spreadsheet applications
http://www.bom.gov.au/fwo/IDV60901/IDV60901.95936.axf

JavaScript Object Notation format (JSON) in row-major order
http://www.bom.gov.au/fwo/IDV60901/IDV60901.95936.json

Data quality

Most of these data are generated automatically and are frequently updated. Quality checks on data are not normally performed. It is possible for incorrect values to appear. Refer to information at About Latest Weather Observations and please check the disclaimer before using these data.